Wetterdaten: Woche 31.03.14 - 06.04.14 (KW14)
Datum Zeit Temp. A. Feuchte A. Luftdruck Regen Wind Richtung Taupunkt Windchill Windben
31.03.2014 00:00 8,9 C 70 % 1014,1 hPa 0,0 l/m 0,6 km/h N 3,7 C 8,9 C 3,6 km/h
31.03.2014 01:00 8,2 C 71 % 1013,6 hPa 0,0 l/m 0,0 km/h N 3,2 C 8,2 C 0,0 km/h
31.03.2014 02:00 7,5 C 74 % 1013,3 hPa 0,0 l/m 0,2 km/h N 3,1 C 7,5 C 2,8 km/h
31.03.2014 03:00 6,6 C 76 % 1013,0 hPa 0,0 l/m 0,9 km/h N 2,6 C 6,6 C 4,8 km/h
31.03.2014 04:00 6,3 C 77 % 1012,9 hPa 0,0 l/m 0,2 km/h N 2,4 C 6,3 C 2,0 km/h
31.03.2014 05:00 5,3 C 79 % 1012,8 hPa 0,0 l/m 0,0 km/h N 1,9 C 5,3 C 0,8 km/h
31.03.2014 06:00 4,4 C 81 % 1012,9 hPa 0,0 l/m 0,1 km/h N 1,3 C 4,4 C 2,0 km/h
31.03.2014 07:00 3,9 C 83 % 1013,1 hPa 0,0 l/m 0,0 km/h N 1,3 C 3,9 C 0,0 km/h
31.03.2014 08:00 6,8 C 83 % 1013,2 hPa 0,0 l/m 0,0 km/h N 4,1 C 6,8 C 0,8 km/h
31.03.2014 09:00 12,0 C 71 % 1012,9 hPa 0,0 l/m 0,5 km/h N 6,9 C 12,0 C 3,6 km/h
31.03.2014 10:00 14,6 C 61 % 1012,9 hPa 0,0 l/m 0,6 km/h N 7,1 C 14,6 C 4,8 km/h
31.03.2014 11:00 16,5 C 56 % 1012,5 hPa 0,0 l/m 1,1 km/h N 7,7 C 16,5 C 6,0 km/h
31.03.2014 12:00 18,0 C 50 % 1011,9 hPa 0,0 l/m 5,3 km/h N 7,3 C 17,6 C 14,1 km/h
31.03.2014 13:00 18,7 C 46 % 1011,7 hPa 0,0 l/m 7,2 km/h N 6,9 C 18,2 C 18,1 km/h
31.03.2014 14:00 19,1 C 43 % 1011,3 hPa 0,0 l/m 7,2 km/h N 6,2 C 18,7 C 19,7 km/h
31.03.2014 15:00 19,2 C 42 % 1010,8 hPa 0,0 l/m 6,2 km/h N 5,9 C 19,1 C 17,3 km/h
31.03.2014 16:00 19,2 C 41 % 1010,4 hPa 0,0 l/m 6,7 km/h N 5,6 C 19,0 C 17,7 km/h
31.03.2014 17:00 18,7 C 43 % 1010,2 hPa 0,0 l/m 8,1 km/h N 5,8 C 17,9 C 19,7 km/h
31.03.2014 18:00 17,7 C 46 % 1010,5 hPa 0,0 l/m 6,9 km/h N 6,0 C 17,3 C 18,1 km/h
31.03.2014 19:00 16,7 C 48 % 1010,9 hPa 0,0 l/m 7,9 km/h N 5,6 C 15,9 C 22,1 km/h
31.03.2014 20:00 15,7 C 51 % 1011,4 hPa 0,0 l/m 3,9 km/h N 5,7 C 15,7 C 11,3 km/h
31.03.2014 21:00 14,8 C 54 % 1011,7 hPa 0,0 l/m 3,9 km/h N 5,5 C 14,8 C 11,7 km/h
31.03.2014 22:00 14,1 C 55 % 1012,0 hPa 0,0 l/m 4,0 km/h N 5,2 C 14,1 C 15,3 km/h
31.03.2014 23:00 13,3 C 58 % 1012,3 hPa 0,0 l/m 1,8 km/h N 5,1 C 13,3 C 6,4 km/h
01.04.2014 00:00 12,4 C 61 % 1012,4 hPa 0,0 l/m 2,3 km/h N 5,1 C 12,4 C 8,4 km/h
01.04.2014 01:00 12,7 C 60 % 1012,2 hPa 0,0 l/m 3,4 km/h N 5,1 C 12,7 C 10,5 km/h
01.04.2014 02:00 12,3 C 61 % 1012,2 hPa 0,0 l/m 2,6 km/h N 4,8 C 12,3 C 9,3 km/h
01.04.2014 03:00 11,9 C 61 % 1012,2 hPa 0,0 l/m 2,5 km/h N 4,6 C 11,9 C 8,9 km/h
01.04.2014 04:00 11,4 C 63 % 1012,3 hPa 0,0 l/m 3,5 km/h N 4,6 C 11,4 C 10,1 km/h
01.04.2014 05:00 11,1 C 64 % 1012,4 hPa 0,0 l/m 3,4 km/h N 4,4 C 11,1 C 9,7 km/h
01.04.2014 06:00 10,6 C 65 % 1012,6 hPa 0,0 l/m 3,3 km/h N 4,4 C 10,6 C 9,3 km/h
01.04.2014 07:00 10,4 C 67 % 1013,1 hPa 0,0 l/m 1,7 km/h N 4,4 C 10,4 C 8,0 km/h
01.04.2014 08:00 11,4 C 66 % 1013,6 hPa 0,0 l/m 2,3 km/h N 5,2 C 11,4 C 8,0 km/h
01.04.2014 09:00 12,9 C 61 % 1013,7 hPa 0,0 l/m 2,7 km/h N 5,6 C 12,9 C 10,4 km/h
01.04.2014 10:00 14,3 C 57 % 1013,7 hPa 0,0 l/m 1,8 km/h N 5,7 C 14,3 C 8,1 km/h
01.04.2014 11:00 15,6 C 52 % 1013,4 hPa 0,0 l/m 2,0 km/h N 5,8 C 15,6 C 8,0 km/h
01.04.2014 12:00 16,8 C 51 % 1013,1 hPa 0,0 l/m 2,0 km/h N 6,6 C 16,8 C 9,3 km/h
01.04.2014 13:00 18,4 C 48 % 1012,5 hPa 0,0 l/m 2,1 km/h N 7,2 C 18,4 C 8,9 km/h
01.04.2014 14:00 18,6 C 44 % 1011,8 hPa 0,0 l/m 2,8 km/h N 6,1 C 18,6 C 11,6 km/h
01.04.2014 15:00 18,1 C 42 % 1011,3 hPa 0,0 l/m 6,0 km/h N 4,8 C 18,0 C 16,1 km/h
01.04.2014 16:00 18,3 C 43 % 1011,0 hPa 0,0 l/m 3,6 km/h N 5,4 C 18,3 C 13,7 km/h
01.04.2014 17:00 18,2 C 44 % 1010,9 hPa 0,0 l/m 1,7 km/h N 5,8 C 18,2 C 7,6 km/h
01.04.2014 18:00 17,6 C 44 % 1011,1 hPa 0,0 l/m 2,9 km/h N 5,3 C 17,6 C 7,6 km/h
01.04.2014 19:00 16,3 C 48 % 1011,3 hPa 0,0 l/m 0,1 km/h N 5,3 C 16,3 C 3,2 km/h
01.04.2014 20:00 13,2 C 57 % 1011,8 hPa 0,0 l/m 0,0 km/h N 4,8 C 13,2 C 0,0 km/h
01.04.2014 21:00 10,4 C 67 % 1012,0 hPa 0,0 l/m 0,0 km/h N 4,6 C 10,4 C 0,0 km/h
01.04.2014 22:00 9,4 C 72 % 1012,1 hPa 0,0 l/m 0,0 km/h N 4,6 C 9,4 C 0,0 km/h
01.04.2014 23:00 8,9 C 74 % 1012,3 hPa 0,0 l/m 0,0 km/h N 4,4 C 8,9 C 0,8 km/h
02.04.2014 00:00 7,9 C 76 % 1012,2 hPa 0,0 l/m 0,0 km/h N 4,0 C 7,9 C 0,4 km/h
02.04.2014 01:00 7,3 C 79 % 1012,1 hPa 0,0 l/m 0,0 km/h N 3,9 C 7,3 C 1,2 km/h
02.04.2014 02:00 7,1 C 80 % 1012,0 hPa 0,0 l/m 0,0 km/h N 3,9 C 7,1 C 0,4 km/h
02.04.2014 03:00 6,4 C 81 % 1012,0 hPa 0,0 l/m 0,2 km/h N 3,4 C 6,4 C 1,2 km/h
02.04.2014 04:00 5,6 C 82 % 1012,2 hPa 0,0 l/m 0,0 km/h N 2,8 C 5,6 C 0,0 km/h
02.04.2014 05:00 5,0 C 83 % 1012,5 hPa 0,0 l/m 0,0 km/h N 2,4 C 5,0 C 0,0 km/h
02.04.2014 06:00 4,9 C 84 % 1012,8 hPa 0,0 l/m 0,0 km/h N 2,5 C 4,9 C 0,0 km/h
02.04.2014 07:00 5,5 C 83 % 1013,1 hPa 0,0 l/m 0,0 km/h N 2,9 C 5,5 C 0,0 km/h
02.04.2014 08:00 7,0 C 82 % 1013,3 hPa 0,0 l/m 0,0 km/h N 4,2 C 7,0 C 0,0 km/h
02.04.2014 09:00 9,7 C 80 % 1013,2 hPa 0,0 l/m 0,4 km/h N 6,3 C 9,7 C 4,0 km/h
02.04.2014 10:00 12,7 C 65 % 1012,9 hPa 0,0 l/m 1,3 km/h N 6,3 C 12,7 C 6,4 km/h
02.04.2014 11:00 14,8 C 56 % 1012,7 hPa 0,0 l/m 2,5 km/h N 6,2 C 14,8 C 9,3 km/h
02.04.2014 12:00 16,5 C 51 % 1012,3 hPa 0,0 l/m 3,9 km/h N 6,4 C 16,5 C 12,9 km/h
02.04.2014 13:00 17,5 C 46 % 1011,7 hPa 0,0 l/m 6,6 km/h N 5,7 C 17,2 C 18,1 km/h
02.04.2014 14:00 18,1 C 44 % 1011,2 hPa 0,0 l/m 5,9 km/h N 5,8 C 18,1 C 19,3 km/h
02.04.2014 15:00 18,1 C 47 % 1010,6 hPa 0,0 l/m 7,1 km/h N 6,6 C 17,6 C 20,5 km/h
02.04.2014 16:00 18,1 C 50 % 1009,9 hPa 0,0 l/m 4,4 km/h N 7,4 C 18,1 C 16,9 km/h
02.04.2014 17:00 17,8 C 50 % 1009,6 hPa 0,0 l/m 4,5 km/h N 7,4 C 17,8 C 15,7 km/h
02.04.2014 18:00 17,4 C 51 % 1009,3 hPa 0,0 l/m 3,3 km/h N 7,1 C 17,4 C 12,5 km/h
02.04.2014 19:00 16,3 C 53 % 1009,3 hPa 0,0 l/m 1,0 km/h N 6,8 C 16,3 C 5,2 km/h
02.04.2014 20:00 13,4 C 61 % 1009,3 hPa 0,0 l/m 0,0 km/h N 6,1 C 13,4 C 0,8 km/h
02.04.2014 21:00 10,8 C 72 % 1009,2 hPa 0,0 l/m 0,0 km/h N 5,9 C 10,8 C 0,4 km/h
02.04.2014 22:00 9,9 C 76 % 1008,9 hPa 0,0 l/m 0,1 km/h N 5,8 C 9,9 C 2,4 km/h
02.04.2014 23:00 9,6 C 75 % 1008,4 hPa 0,0 l/m 0,0 km/h N 5,4 C 9,6 C 0,0 km/h
03.04.2014 00:00 8,5 C 79 % 1008,1 hPa 0,0 l/m 0,3 km/h N 5,0 C 8,5 C 2,0 km/h
03.04.2014 01:00 10,0 C 79 % 1007,5 hPa 0,0 l/m 0,6 km/h N 6,5 C 10,0 C 3,6 km/h
03.04.2014 02:00 8,3 C 79 % 1007,1 hPa 0,0 l/m 0,1 km/h N 4,8 C 8,3 C 1,6 km/h
03.04.2014 03:00 6,4 C 82 % 1006,8 hPa 0,0 l/m 0,0 km/h N 3,5 C 6,4 C 0,0 km/h
03.04.2014 04:00 5,4 C 84 % 1006,7 hPa 0,0 l/m 0,0 km/h N 2,9 C 5,4 C 0,4 km/h
03.04.2014 05:00 4,7 C 84 % 1006,6 hPa 0,0 l/m 0,0 km/h N 2,2 C 4,7 C 0,0 km/h
03.04.2014 06:00 4,4 C 83 % 1006,8 hPa 0,0 l/m 0,0 km/h N 1,8 C 4,4 C 0,0 km/h
03.04.2014 07:00 4,9 C 81 % 1007,3 hPa 0,0 l/m 0,0 km/h N 2,0 C 4,9 C 0,4 km/h
03.04.2014 08:00 7,7 C 78 % 1007,6 hPa 0,0 l/m 0,1 km/h N 4,0 C 7,7 C 2,0 km/h
03.04.2014 09:00 11,1 C 80 % 1007,5 hPa 0,0 l/m 0,3 km/h N 7,8 C 11,1 C 3,6 km/h
03.04.2014 10:00 14,7 C 69 % 1007,4 hPa 0,0 l/m 1,1 km/h N 9,0 C 14,7 C 5,6 km/h
03.04.2014 11:00 17,2 C 60 % 1007,1 hPa 0,0 l/m 1,1 km/h N 9,4 C 17,2 C 6,0 km/h
03.04.2014 12:00 18,5 C 57 % 1006,7 hPa 0,0 l/m 1,8 km/h N 9,9 C 18,5 C 7,6 km/h
03.04.2014 13:00 19,9 C 54 % 1006,3 hPa 0,0 l/m 2,2 km/h N 10,1 C 19,9 C 9,7 km/h
03.04.2014 14:00 20,6 C 51 % 1006,2 hPa 0,0 l/m 1,9 km/h N 10,2 C 20,6 C 8,4 km/h
03.04.2014 15:00 21,2 C 48 % 1005,7 hPa 0,0 l/m 1,2 km/h N 9,8 C 21,2 C 6,0 km/h
03.04.2014 16:00 21,1 C 49 % 1005,5 hPa 0,0 l/m 2,8 km/h N 9,9 C 21,1 C 8,9 km/h
03.04.2014 17:00 20,7 C 48 % 1005,5 hPa 0,0 l/m 0,9 km/h N 9,2 C 20,7 C 5,2 km/h
03.04.2014 18:00 20,0 C 49 % 1005,4 hPa 0,0 l/m 0,3 km/h N 8,8 C 20,0 C 3,2 km/h
03.04.2014 19:00 18,3 C 54 % 1005,5 hPa 0,0 l/m 0,0 km/h N 8,7 C 18,3 C 0,0 km/h
03.04.2014 20:00 15,3 C 63 % 1005,9 hPa 0,0 l/m 0,0 km/h N 8,3 C 15,3 C 0,0 km/h
03.04.2014 21:00 12,9 C 73 % 1005,9 hPa 0,0 l/m 0,0 km/h N 8,1 C 12,9 C 0,0 km/h
03.04.2014 22:00 11,5 C 78 % 1005,7 hPa 0,0 l/m 0,0 km/h N 7,7 C 11,5 C 0,0 km/h
03.04.2014 23:00 10,5 C 80 % 1005,8 hPa 0,0 l/m 0,0 km/h N 7,1 C 10,5 C 0,0 km/h
04.04.2014 00:00 9,9 C 81 % 1005,9 hPa 0,0 l/m 0,0 km/h N 6,9 C 9,9 C 1,2 km/h
04.04.2014 01:00 9,5 C 82 % 1005,9 hPa 0,0 l/m 0,0 km/h N 6,6 C 9,5 C 0,8 km/h
04.04.2014 02:00 8,8 C 83 % 1005,9 hPa 0,0 l/m 0,0 km/h N 6,0 C 8,8 C 0,0 km/h
04.04.2014 03:00 8,3 C 83 % 1005,9 hPa 0,0 l/m 0,0 km/h N 5,6 C 8,3 C 0,0 km/h
04.04.2014 04:00 7,9 C 83 % 1006,0 hPa 0,0 l/m 0,0 km/h N 5,3 C 7,9 C 0,0 km/h
04.04.2014 05:00 7,6 C 83 % 1006,4 hPa 0,0 l/m 0,0 km/h N 4,9 C 7,6 C 0,0 km/h
04.04.2014 06:00 7,3 C 83 % 1006,8 hPa 0,0 l/m 0,0 km/h N 4,5 C 7,3 C 0,4 km/h
04.04.2014 07:00 7,4 C 82 % 1007,2 hPa 0,0 l/m 0,0 km/h N 4,4 C 7,4 C 0,8 km/h
04.04.2014 08:00 8,6 C 80 % 1007,6 hPa 0,0 l/m 0,0 km/h N 5,3 C 8,6 C 0,0 km/h
04.04.2014 09:00 10,3 C 78 % 1008,1 hPa 0,0 l/m 0,0 km/h N 6,6 C 10,3 C 0,0 km/h
04.04.2014 10:00 11,6 C 81 % 1008,5 hPa 0,0 l/m 0,6 km/h N 8,5 C 11,6 C 3,6 km/h
04.04.2014 11:00 13,2 C 78 % 1008,6 hPa 0,0 l/m 0,2 km/h N 9,3 C 13,2 C 3,2 km/h
04.04.2014 12:00 14,3 C 73 % 1008,5 hPa 0,0 l/m 0,2 km/h N 9,6 C 14,3 C 3,2 km/h
04.04.2014 13:00 15,1 C 70 % 1008,4 hPa 0,0 l/m 0,6 km/h N 9,7 C 15,1 C 4,4 km/h
04.04.2014 14:00 16,0 C 66 % 1008,4 hPa 0,0 l/m 2,2 km/h N 9,7 C 16,0 C 7,2 km/h
04.04.2014 15:00 16,3 C 66 % 1008,1 hPa 0,0 l/m 1,2 km/h N 9,9 C 16,3 C 6,0 km/h
04.04.2014 16:00 16,7 C 65 % 1007,9 hPa 0,0 l/m 0,8 km/h N 10,1 C 16,7 C 4,8 km/h
04.04.2014 17:00 16,8 C 65 % 1007,8 hPa 0,0 l/m 0,1 km/h N 10,3 C 16,8 C 2,0 km/h
04.04.2014 18:00 16,6 C 66 % 1008,0 hPa 0,0 l/m 0,3 km/h N 10,2 C 16,6 C 3,2 km/h
04.04.2014 19:00 15,4 C 69 % 1008,3 hPa 0,0 l/m 0,0 km/h N 9,7 C 15,4 C 1,2 km/h
04.04.2014 20:00 12,7 C 75 % 1008,9 hPa 0,0 l/m 0,0 km/h N 8,3 C 12,7 C 0,0 km/h
04.04.2014 21:00 11,1 C 79 % 1009,1 hPa 0,0 l/m 0,0 km/h N 7,6 C 11,1 C 0,0 km/h
04.04.2014 22:00 10,1 C 83 % 1009,2 hPa 0,0 l/m 0,0 km/h N 7,3 C 10,1 C 0,0 km/h
04.04.2014 23:00 9,5 C 83 % 1009,3 hPa 0,0 l/m 0,0 km/h N 6,8 C 9,5 C 0,0 km/h
05.04.2014 00:00 9,4 C 83 % 1009,2 hPa 0,0 l/m 0,0 km/h N 6,6 C 9,4 C 0,0 km/h
05.04.2014 01:00 9,0 C 82 % 1009,3 hPa 0,0 l/m 0,0 km/h N 6,1 C 9,0 C 0,0 km/h
05.04.2014 02:00 8,5 C 82 % 1009,2 hPa 0,0 l/m 0,0 km/h N 5,6 C 8,5 C 0,0 km/h
05.04.2014 03:00 7,7 C 82 % 1009,4 hPa 0,0 l/m 0,0 km/h N 4,8 C 7,7 C 0,0 km/h
05.04.2014 04:00 7,1 C 82 % 1009,4 hPa 0,0 l/m 0,0 km/h N 4,2 C 7,1 C 0,0 km/h
05.04.2014 05:00 6,9 C 81 % 1009,7 hPa 0,0 l/m 0,0 km/h N 3,8 C 6,9 C 0,4 km/h
05.04.2014 06:00 6,7 C 80 % 1009,9 hPa 0,0 l/m 0,0 km/h N 3,5 C 6,7 C 0,0 km/h
05.04.2014 07:00 6,8 C 79 % 1010,2 hPa 0,0 l/m 0,0 km/h N 3,4 C 6,8 C 0,0 km/h
05.04.2014 08:00 8,6 C 76 % 1010,6 hPa 0,0 l/m 0,0 km/h N 4,7 C 8,6 C 0,0 km/h
05.04.2014 09:00 11,1 C 75 % 1011,0 hPa 0,0 l/m 0,5 km/h N 6,9 C 11,1 C 3,6 km/h
05.04.2014 10:00 13,8 C 77 % 1011,3 hPa 0,0 l/m 0,6 km/h N 9,8 C 13,8 C 4,4 km/h
05.04.2014 11:00 15,8 C 66 % 1011,2 hPa 0,0 l/m 0,9 km/h N 9,5 C 15,8 C 5,2 km/h
05.04.2014 12:00 16,6 C 64 % 1011,2 hPa 0,0 l/m 1,5 km/h N 9,8 C 16,6 C 6,8 km/h
05.04.2014 13:00 17,9 C 61 % 1011,4 hPa 0,0 l/m 1,5 km/h N 10,3 C 17,9 C 7,2 km/h
05.04.2014 14:00 18,4 C 58 % 1011,3 hPa 0,0 l/m 1,8 km/h N 10,0 C 18,4 C 10,1 km/h
05.04.2014 15:00 18,4 C 58 % 1011,4 hPa 0,0 l/m 2,4 km/h N 10,1 C 18,4 C 10,5 km/h
05.04.2014 16:00 18,1 C 59 % 1011,7 hPa 0,0 l/m 3,3 km/h N 9,9 C 18,1 C 10,9 km/h
05.04.2014 17:00 17,6 C 59 % 1012,2 hPa 0,0 l/m 3,9 km/h N 9,6 C 17,6 C 13,3 km/h
05.04.2014 18:00 16,6 C 61 % 1012,6 hPa 0,0 l/m 1,8 km/h N 9,0 C 16,6 C 8,0 km/h
05.04.2014 19:00 15,3 C 65 % 1012,9 hPa 0,0 l/m 0,2 km/h N 8,7 C 15,3 C 3,2 km/h
05.04.2014 20:00 13,5 C 69 % 1013,4 hPa 0,0 l/m 0,0 km/h N 8,0 C 13,5 C 0,0 km/h
05.04.2014 21:00 11,9 C 75 % 1014,0 hPa 0,0 l/m 0,0 km/h N 7,6 C 11,9 C 0,0 km/h
05.04.2014 22:00 10,9 C 80 % 1014,3 hPa 0,0 l/m 0,0 km/h N 7,5 C 10,9 C 0,0 km/h
05.04.2014 23:00 10,7 C 82 % 1014,5 hPa 0,0 l/m 0,0 km/h N 7,7 C 10,7 C 0,0 km/h
06.04.2014 00:00 10,5 C 82 % 1014,7 hPa 0,0 l/m 0,0 km/h N 7,5 C 10,5 C 0,0 km/h
06.04.2014 01:00 10,4 C 83 % 1014,6 hPa 0,0 l/m 0,0 km/h N 7,7 C 10,4 C 1,2 km/h
06.04.2014 02:00 10,6 C 83 % 1014,8 hPa 0,0 l/m 0,0 km/h N 7,9 C 10,6 C 0,4 km/h
06.04.2014 03:00 10,0 C 83 % 1014,7 hPa 0,0 l/m 0,0 km/h N 7,2 C 10,0 C 0,0 km/h
06.04.2014 04:00 9,3 C 84 % 1014,7 hPa 0,0 l/m 0,0 km/h N 6,6 C 9,3 C 0,4 km/h
06.04.2014 05:00 9,2 C 83 % 1014,7 hPa 0,0 l/m 0,1 km/h N 6,4 C 9,2 C 1,2 km/h
06.04.2014 06:00 9,1 C 82 % 1014,9 hPa 0,0 l/m 0,1 km/h N 6,2 C 9,1 C 2,0 km/h
06.04.2014 07:00 8,8 C 82 % 1015,5 hPa 0,0 l/m 0,0 km/h N 5,8 C 8,8 C 0,8 km/h
06.04.2014 08:00 10,0 C 80 % 1016,0 hPa 0,0 l/m 0,1 km/h N 6,7 C 10,0 C 2,0 km/h
06.04.2014 09:00 13,7 C 80 % 1016,1 hPa 0,0 l/m 3,8 km/h N 10,2 C 13,5 C 14,1 km/h
06.04.2014 10:00 16,9 C 69 % 1016,1 hPa 0,0 l/m 9,3 km/h N 11,1 C 15,6 C 20,5 km/h
06.04.2014 11:00 17,7 C 66 % 1016,3 hPa 0,0 l/m 7,3 km/h N 11,3 C 17,2 C 19,7 km/h
06.04.2014 12:00 18,3 C 63 % 1016,2 hPa 0,0 l/m 6,5 km/h N 11,1 C 18,1 C 19,7 km/h
06.04.2014 13:00 18,0 C 65 % 1016,2 hPa 0,0 l/m 7,0 km/h N 11,2 C 17,6 C 18,5 km/h
06.04.2014 14:00 17,1 C 71 % 1016,3 hPa 0,0 l/m 4,6 km/h N 11,8 C 17,1 C 16,5 km/h
06.04.2014 15:00 16,4 C 72 % 1016,3 hPa 0,0 l/m 8,3 km/h N 11,3 C 15,5 C 21,3 km/h
06.04.2014 16:00 15,5 C 78 % 1016,5 hPa 1,0 l/m 6,7 km/h N 11,7 C 15,0 C 21,3 km/h
06.04.2014 17:00 15,0 C 81 % 1016,4 hPa 0,5 l/m 3,8 km/h N 11,8 C 15,0 C 11,3 km/h
06.04.2014 18:00 15,7 C 73 % 1016,7 hPa 0,0 l/m 5,4 km/h N 10,8 C 15,4 C 18,9 km/h
06.04.2014 19:00 15,1 C 75 % 1017,0 hPa 0,0 l/m 4,2 km/h N 10,7 C 15,1 C 12,9 km/h
06.04.2014 20:00 14,2 C 75 % 1017,9 hPa 0,0 l/m 3,4 km/h N 9,8 C 14,2 C 13,3 km/h
06.04.2014 21:00 13,5 C 75 % 1018,2 hPa 0,0 l/m 3,7 km/h N 9,2 C 13,5 C 11,7 km/h
06.04.2014 22:00 13,2 C 75 % 1018,3 hPa 0,0 l/m 2,9 km/h N 8,9 C 13,2 C 11,3 km/h
06.04.2014 23:00 13,4 C 76 % 1018,5 hPa 0,0 l/m 4,1 km/h N 9,2 C 13,4 C 13,7 km/h
Min-Datum _ 31.03.14 31.03.14 03.04.14 - 31.03.14 - 31.03.14 31.03.14 31.03.14
_ Min-Zeit 07:15 15:45 16:30 - 01:00 - 07:00 07:15 01:00
Minimum _ 3,7 C 40 % 1005,4 hPa - 0,0 km/h - 1,0 C 3,7 C 0,0 km/h
Max-Datum _ 03.04.14 31.03.14 06.04.14 06.04.14 06.04.14 - 06.04.14 03.04.14 31.03.14
_ Max-Zeit 15:00 07:45 23:45 16:15 15:00 - 14:30 15:00 19:15
Maximum _ 21,6 C 84 % 1018,6 hPa 1,0 l/m 10,7 km/h
N
- 12,2 C 21,5 C 27,4 km/h
N
Durchschnitt _ 12,7 C 68 % 1011,1 hPa #1,6 l/m 1,7 km/h N 6,6 C 12,6 C 6,0 km/h